sensor_id;sensor_type;location;lat;lon;timestamp;temperature;humidity
15625;DHT22;7912;51.376;6.126;2023-12-04T00:02:03;3.50;99.90
15625;DHT22;7912;51.376;6.126;2023-12-04T00:04:33;3.60;99.90
15625;DHT22;7912;51.376;6.126;2023-12-04T00:07:04;3.50;99.90
15625;DHT22;7912;51.376;6.126;2023-12-04T00:09:31;3.50;99.90
15625;DHT22;7912;51.376;6.126;2023-12-04T00:11:59;3.50;99.90
15625;DHT22;7912;51.376;6.126;2023-12-04T00:14:26;3.50;99.90
15625;DHT22;7912;51.376;6.126;2023-12-04T00:16:54;3.50;99.90
15625;DHT22;7912;51.376;6.126;2023-12-04T00:19:21;3.50;99.90
15625;DHT22;7912;51.376;6.126;2023-12-04T00:21:48;3.50;99.90
15625;DHT22;7912;51.376;6.126;2023-12-04T00:24:16;3.50;99.90
15625;DHT22;7912;51.376;6.126;2023-12-04T00:26:43;3.50;99.90
15625;DHT22;7912;51.376;6.126;2023-12-04T00:29:10;3.50;99.90
15625;DHT22;7912;51.376;6.126;2023-12-04T00:31:38;3.50;99.90
15625;DHT22;7912;51.376;6.126;2023-12-04T00:34:05;3.50;99.90
15625;DHT22;7912;51.376;6.126;2023-12-04T00:36:32;3.50;99.90
15625;DHT22;7912;51.376;6.126;2023-12-04T00:39:00;3.50;99.90
15625;DHT22;7912;51.376;6.126;2023-12-04T00:41:30;3.50;99.90
15625;DHT22;7912;51.376;6.126;2023-12-04T00:44:02;3.50;99.90
15625;DHT22;7912;51.376;6.126;2023-12-04T00:46:30;3.50;99.90
15625;DHT22;7912;51.376;6.126;2023-12-04T00:48:57;3.50;99.90
15625;DHT22;7912;51.376;6.126;2023-12-04T00:51:25;3.60;99.90
15625;DHT22;7912;51.376;6.126;2023-12-04T00:53:53;3.60;99.90
15625;DHT22;7912;51.376;6.126;2023-12-04T00:56:20;3.60;99.90
15625;DHT22;7912;51.376;6.126;2023-12-04T00:58:51;3.60;99.90
15625;DHT22;7912;51.376;6.126;2023-12-04T01:01:18;3.70;99.90
15625;DHT22;7912;51.376;6.126;2023-12-04T01:03:46;3.70;99.90
15625;DHT22;7912;51.376;6.126;2023-12-04T01:06:20;3.70;99.90
15625;DHT22;7912;51.376;6.126;2023-12-04T01:08:53;3.70;99.90
15625;DHT22;7912;51.376;6.126;2023-12-04T01:11:21;3.70;99.90
15625;DHT22;7912;51.376;6.126;2023-12-04T01:13:49;3.70;99.90
15625;DHT22;7912;51.376;6.126;2023-12-04T01:16:19;3.70;99.90
15625;DHT22;7912;51.376;6.126;2023-12-04T01:18:46;3.70;99.90
15625;DHT22;7912;51.376;6.126;2023-12-04T01:21:14;3.80;99.90
15625;DHT22;7912;51.376;6.126;2023-12-04T01:23:41;3.80;99.90
15625;DHT22;7912;51.376;6.126;2023-12-04T01:26:10;3.80;99.90
15625;DHT22;7912;51.376;6.126;2023-12-04T01:28:37;3.80;99.90
15625;DHT22;7912;51.376;6.126;2023-12-04T01:31:05;3.80;99.90
15625;DHT22;7912;51.376;6.126;2023-12-04T01:33:33;3.80;99.90
15625;DHT22;7912;51.376;6.126;2023-12-04T01:36:02;3.80;99.90
15625;DHT22;7912;51.376;6.126;2023-12-04T01:38:29;3.90;99.90
15625;DHT22;7912;51.376;6.126;2023-12-04T01:40:59;3.90;99.90
15625;DHT22;7912;51.376;6.126;2023-12-04T01:43:26;3.90;99.90
15625;DHT22;7912;51.376;6.126;2023-12-04T01:45:56;3.90;99.90
15625;DHT22;7912;51.376;6.126;2023-12-04T01:48:25;3.90;99.90
15625;DHT22;7912;51.376;6.126;2023-12-04T01:50:53;3.90;99.90
15625;DHT22;7912;51.376;6.126;2023-12-04T01:53:23;3.90;99.90
15625;DHT22;7912;51.376;6.126;2023-12-04T01:55:51;3.90;99.90
15625;DHT22;7912;51.376;6.126;2023-12-04T01:58:18;3.90;99.90
15625;DHT22;7912;51.376;6.126;2023-12-04T02:00:48;3.90;99.90
15625;DHT22;7912;51.376;6.126;2023-12-04T02:03:17;3.90;99.90
15625;DHT22;7912;51.376;6.126;2023-12-04T02:05:44;3.90;99.90
15625;DHT22;7912;51.376;6.126;2023-12-04T02:08:14;3.90;99.90
15625;DHT22;7912;51.376;6.126;2023-12-04T02:10:45;3.90;99.90
15625;DHT22;7912;51.376;6.126;2023-12-04T02:13:12;3.90;99.90
15625;DHT22;7912;51.376;6.126;2023-12-04T02:15:39;3.90;99.90
15625;DHT22;7912;51.376;6.126;2023-12-04T02:18:09;3.90;99.90
15625;DHT22;7912;51.376;6.126;2023-12-04T02:20:37;3.90;99.90
15625;DHT22;7912;51.376;6.126;2023-12-04T02:23:05;3.90;99.90
15625;DHT22;7912;51.376;6.126;2023-12-04T02:25:32;3.90;99.90
15625;DHT22;7912;51.376;6.126;2023-12-04T02:28:09;3.90;99.90
15625;DHT22;7912;51.376;6.126;2023-12-04T02:30:44;3.90;99.90
15625;DHT22;7912;51.376;6.126;2023-12-04T02:33:13;3.90;99.90
15625;DHT22;7912;51.376;6.126;2023-12-04T02:35:44;3.90;99.90
15625;DHT22;7912;51.376;6.126;2023-12-04T02:38:12;3.90;99.90
15625;DHT22;7912;51.376;6.126;2023-12-04T02:40:40;3.90;99.90
15625;DHT22;7912;51.376;6.126;2023-12-04T02:43:08;3.90;99.90
15625;DHT22;7912;51.376;6.126;2023-12-04T02:45:35;3.90;99.90
15625;DHT22;7912;51.376;6.126;2023-12-04T02:48:03;3.90;99.90
15625;DHT22;7912;51.376;6.126;2023-12-04T02:50:30;3.90;99.90
15625;DHT22;7912;51.376;6.126;2023-12-04T02:52:57;3.90;99.90
15625;DHT22;7912;51.376;6.126;2023-12-04T02:55:25;3.90;99.90
15625;DHT22;7912;51.376;6.126;2023-12-04T02:57:52;3.90;99.90
15625;DHT22;7912;51.376;6.126;2023-12-04T03:00:19;3.90;99.90
15625;DHT22;7912;51.376;6.126;2023-12-04T03:02:46;3.90;99.90
15625;DHT22;7912;51.376;6.126;2023-12-04T03:05:14;3.90;99.90
15625;DHT22;7912;51.376;6.126;2023-12-04T03:07:41;3.90;99.90
15625;DHT22;7912;51.376;6.126;2023-12-04T03:10:08;3.80;99.90
15625;DHT22;7912;51.376;6.126;2023-12-04T03:12:36;3.90;99.90
15625;DHT22;7912;51.376;6.126;2023-12-04T03:15:04;3.90;99.90
15625;DHT22;7912;51.376;6.126;2023-12-04T03:17:32;3.90;99.90
15625;DHT22;7912;51.376;6.126;2023-12-04T03:19:59;3.80;99.90
15625;DHT22;7912;51.376;6.126;2023-12-04T03:22:27;3.80;99.90
15625;DHT22;7912;51.376;6.126;2023-12-04T03:24:54;3.80;99.90
15625;DHT22;7912;51.376;6.126;2023-12-04T03:27:22;3.80;99.90
15625;DHT22;7912;51.376;6.126;2023-12-04T03:29:49;3.80;99.90
15625;DHT22;7912;51.376;6.126;2023-12-04T03:32:16;3.80;99.90
15625;DHT22;7912;51.376;6.126;2023-12-04T03:34:43;3.80;99.90
15625;DHT22;7912;51.376;6.126;2023-12-04T03:37:11;3.80;99.90
15625;DHT22;7912;51.376;6.126;2023-12-04T03:39:38;3.80;99.90
15625;DHT22;7912;51.376;6.126;2023-12-04T03:42:06;3.80;99.90
15625;DHT22;7912;51.376;6.126;2023-12-04T03:44:33;3.80;99.90
15625;DHT22;7912;51.376;6.126;2023-12-04T03:47:00;3.80;99.90
15625;DHT22;7912;51.376;6.126;2023-12-04T03:49:27;3.80;99.90
15625;DHT22;7912;51.376;6.126;2023-12-04T03:51:55;3.80;99.90
15625;DHT22;7912;51.376;6.126;2023-12-04T03:54:22;3.70;99.90
15625;DHT22;7912;51.376;6.126;2023-12-04T03:56:49;3.70;99.90
15625;DHT22;7912;51.376;6.126;2023-12-04T03:59:16;3.70;99.90
15625;DHT22;7912;51.376;6.126;2023-12-04T04:01:44;3.70;99.90
15625;DHT22;7912;51.376;6.126;2023-12-04T04:04:11;3.70;99.90
15625;DHT22;7912;51.376;6.126;2023-12-04T04:06:38;3.70;99.90
15625;DHT22;7912;51.376;6.126;2023-12-04T04:09:07;3.70;99.90
15625;DHT22;7912;51.376;6.126;2023-12-04T04:11:34;3.70;99.90
15625;DHT22;7912;51.376;6.126;2023-12-04T04:14:02;3.70;99.90
15625;DHT22;7912;51.376;6.126;2023-12-04T04:16:29;3.70;99.90
15625;DHT22;7912;51.376;6.126;2023-12-04T04:18:56;3.70;99.90
15625;DHT22;7912;51.376;6.126;2023-12-04T04:21:24;3.70;99.90
15625;DHT22;7912;51.376;6.126;2023-12-04T04:23:51;3.70;99.90
15625;DHT22;7912;51.376;6.126;2023-12-04T04:26:20;3.70;99.90
15625;DHT22;7912;51.376;6.126;2023-12-04T04:28:49;3.70;99.90
15625;DHT22;7912;51.376;6.126;2023-12-04T04:31:16;3.70;99.90
15625;DHT22;7912;51.376;6.126;2023-12-04T04:33:43;3.70;99.90
15625;DHT22;7912;51.376;6.126;2023-12-04T04:36:11;3.70;99.90
15625;DHT22;7912;51.376;6.126;2023-12-04T04:38:39;3.70;99.90
15625;DHT22;7912;51.376;6.126;2023-12-04T04:41:13;3.70;99.90
15625;DHT22;7912;51.376;6.126;2023-12-04T04:43:42;3.70;99.90
15625;DHT22;7912;51.376;6.126;2023-12-04T04:46:12;3.70;99.90
15625;DHT22;7912;51.376;6.126;2023-12-04T04:48:40;3.60;99.90
15625;DHT22;7912;51.376;6.126;2023-12-04T04:51:08;3.70;99.90
15625;DHT22;7912;51.376;6.126;2023-12-04T04:53:35;3.60;99.90
15625;DHT22;7912;51.376;6.126;2023-12-04T04:56:02;3.60;99.90
15625;DHT22;7912;51.376;6.126;2023-12-04T04:58:30;3.60;99.90
15625;DHT22;7912;51.376;6.126;2023-12-04T05:01:00;3.60;99.90
15625;DHT22;7912;51.376;6.126;2023-12-04T05:03:28;3.60;99.90
15625;DHT22;7912;51.376;6.126;2023-12-04T05:05:56;3.60;99.90
15625;DHT22;7912;51.376;6.126;2023-12-04T05:08:24;3.60;99.90
15625;DHT22;7912;51.376;6.126;2023-12-04T05:10:53;3.60;99.90
15625;DHT22;7912;51.376;6.126;2023-12-04T05:13:20;3.60;99.90
15625;DHT22;7912;51.376;6.126;2023-12-04T05:15:48;3.60;99.90
15625;DHT22;7912;51.376;6.126;2023-12-04T05:18:15;3.60;99.90
15625;DHT22;7912;51.376;6.126;2023-12-04T05:20:42;3.60;99.90
15625;DHT22;7912;51.376;6.126;2023-12-04T05:23:09;3.60;99.90
15625;DHT22;7912;51.376;6.126;2023-12-04T05:25:37;3.60;99.90
15625;DHT22;7912;51.376;6.126;2023-12-04T05:28:13;3.60;99.90
15625;DHT22;7912;51.376;6.126;2023-12-04T05:30:41;3.60;99.90
15625;DHT22;7912;51.376;6.126;2023-12-04T05:33:09;3.60;99.90
15625;DHT22;7912;51.376;6.126;2023-12-04T05:35:36;3.60;99.90
15625;DHT22;7912;51.376;6.126;2023-12-04T05:38:04;3.60;99.90
15625;DHT22;7912;51.376;6.126;2023-12-04T05:40:31;3.60;99.90
15625;DHT22;7912;51.376;6.126;2023-12-04T05:42:58;3.60;99.90
15625;DHT22;7912;51.376;6.126;2023-12-04T05:45:25;3.60;99.90
15625;DHT22;7912;51.376;6.126;2023-12-04T05:47:53;3.70;99.90
15625;DHT22;7912;51.376;6.126;2023-12-04T05:50:21;3.70;99.90
15625;DHT22;7912;51.376;6.126;2023-12-04T05:52:48;3.70;99.90
15625;DHT22;7912;51.376;6.126;2023-12-04T05:55:15;3.70;99.90
15625;DHT22;7912;51.376;6.126;2023-12-04T05:57:44;3.70;99.90
15625;DHT22;7912;51.376;6.126;2023-12-04T06:00:11;3.70;99.90
15625;DHT22;7912;51.376;6.126;2023-12-04T06:02:45;3.70;99.90
15625;DHT22;7912;51.376;6.126;2023-12-04T06:05:12;3.70;99.90
15625;DHT22;7912;51.376;6.126;2023-12-04T06:07:40;3.70;99.90
15625;DHT22;7912;51.376;6.126;2023-12-04T06:10:08;3.70;99.90
15625;DHT22;7912;51.376;6.126;2023-12-04T06:12:35;3.80;99.90
15625;DHT22;7912;51.376;6.126;2023-12-04T06:15:03;3.70;99.90
15625;DHT22;7912;51.376;6.126;2023-12-04T06:17:31;3.70;99.90
15625;DHT22;7912;51.376;6.126;2023-12-04T06:19:58;3.70;99.90
15625;DHT22;7912;51.376;6.126;2023-12-04T06:22:26;3.70;99.90
15625;DHT22;7912;51.376;6.126;2023-12-04T06:24:54;3.70;99.90
15625;DHT22;7912;51.376;6.126;2023-12-04T06:27:22;3.60;99.90
15625;DHT22;7912;51.376;6.126;2023-12-04T06:29:53;3.60;99.90
15625;DHT22;7912;51.376;6.126;2023-12-04T06:32:20;3.60;99.90
15625;DHT22;7912;51.376;6.126;2023-12-04T06:34:48;3.60;99.90
15625;DHT22;7912;51.376;6.126;2023-12-04T06:37:16;3.60;99.90
15625;DHT22;7912;51.376;6.126;2023-12-04T06:39:45;3.60;99.90
15625;DHT22;7912;51.376;6.126;2023-12-04T06:42:15;3.60;99.90
15625;DHT22;7912;51.376;6.126;2023-12-04T06:44:43;3.60;99.90
15625;DHT22;7912;51.376;6.126;2023-12-04T06:47:12;3.60;99.90
15625;DHT22;7912;51.376;6.126;2023-12-04T06:49:39;3.60;99.90
15625;DHT22;7912;51.376;6.126;2023-12-04T06:52:07;3.60;99.90
15625;DHT22;7912;51.376;6.126;2023-12-04T06:54:34;3.60;99.90
15625;DHT22;7912;51.376;6.126;2023-12-04T06:57:01;3.60;99.90
15625;DHT22;7912;51.376;6.126;2023-12-04T06:59:28;3.60;99.90
15625;DHT22;7912;51.376;6.126;2023-12-04T07:01:56;3.60;99.90
15625;DHT22;7912;51.376;6.126;2023-12-04T07:04:23;3.60;99.90
15625;DHT22;7912;51.376;6.126;2023-12-04T07:06:50;3.50;99.90
15625;DHT22;7912;51.376;6.126;2023-12-04T07:09:18;3.50;99.90
15625;DHT22;7912;51.376;6.126;2023-12-04T07:11:45;3.50;99.90
15625;DHT22;7912;51.376;6.126;2023-12-04T07:14:13;3.50;99.90
15625;DHT22;7912;51.376;6.126;2023-12-04T07:16:44;3.50;99.90
15625;DHT22;7912;51.376;6.126;2023-12-04T07:19:11;3.50;99.90
15625;DHT22;7912;51.376;6.126;2023-12-04T07:21:40;3.50;99.90
15625;DHT22;7912;51.376;6.126;2023-12-04T07:24:08;3.50;99.90
15625;DHT22;7912;51.376;6.126;2023-12-04T07:26:35;3.60;99.90
15625;DHT22;7912;51.376;6.126;2023-12-04T07:29:03;3.60;99.90
15625;DHT22;7912;51.376;6.126;2023-12-04T07:31:31;3.60;99.90
15625;DHT22;7912;51.376;6.126;2023-12-04T07:33:59;3.60;99.90
15625;DHT22;7912;51.376;6.126;2023-12-04T07:36:47;3.70;99.90
15625;DHT22;7912;51.376;6.126;2023-12-04T07:39:15;3.60;99.90
15625;DHT22;7912;51.376;6.126;2023-12-04T07:41:45;3.70;99.90
15625;DHT22;7912;51.376;6.126;2023-12-04T07:44:12;3.60;99.90
15625;DHT22;7912;51.376;6.126;2023-12-04T07:46:40;3.70;99.90
15625;DHT22;7912;51.376;6.126;2023-12-04T07:49:07;3.70;99.90
15625;DHT22;7912;51.376;6.126;2023-12-04T07:51:34;3.60;99.90
15625;DHT22;7912;51.376;6.126;2023-12-04T07:57:06;3.60;99.90
15625;DHT22;7912;51.376;6.126;2023-12-04T07:59:33;3.70;99.90
15625;DHT22;7912;51.376;6.126;2023-12-04T08:02:01;3.60;99.90
15625;DHT22;7912;51.376;6.126;2023-12-04T08:04:31;3.60;99.90
15625;DHT22;7912;51.376;6.126;2023-12-04T08:06:58;3.60;99.90
15625;DHT22;7912;51.376;6.126;2023-12-04T08:09:25;3.70;99.90
15625;DHT22;7912;51.376;6.126;2023-12-04T08:11:53;3.70;99.90
15625;DHT22;7912;51.376;6.126;2023-12-04T08:14:24;3.80;99.90
15625;DHT22;7912;51.376;6.126;2023-12-04T08:20:15;3.80;99.90
15625;DHT22;7912;51.376;6.126;2023-12-04T08:23:02;3.80;99.90
15625;DHT22;7912;51.376;6.126;2023-12-04T08:25:30;3.90;99.90
15625;DHT22;7912;51.376;6.126;2023-12-04T08:27:58;3.90;99.90
15625;DHT22;7912;51.376;6.126;2023-12-04T08:30:27;3.90;99.90
15625;DHT22;7912;51.376;6.126;2023-12-04T08:32:57;3.90;99.90
15625;DHT22;7912;51.376;6.126;2023-12-04T08:38:33;4.00;99.90
15625;DHT22;7912;51.376;6.126;2023-12-04T08:41:00;4.00;99.90
15625;DHT22;7912;51.376;6.126;2023-12-04T08:43:28;4.00;99.90
15625;DHT22;7912;51.376;6.126;2023-12-04T08:45:55;4.00;99.90
15625;DHT22;7912;51.376;6.126;2023-12-04T08:48:23;4.00;99.90
15625;DHT22;7912;51.376;6.126;2023-12-04T08:50:50;3.90;99.90
15625;DHT22;7912;51.376;6.126;2023-12-04T08:53:17;3.90;99.90
15625;DHT22;7912;51.376;6.126;2023-12-04T08:55:44;3.90;99.90
15625;DHT22;7912;51.376;6.126;2023-12-04T08:58:12;4.00;99.90
15625;DHT22;7912;51.376;6.126;2023-12-04T09:04:22;4.00;99.90
15625;DHT22;7912;51.376;6.126;2023-12-04T09:06:50;4.00;99.90
15625;DHT22;7912;51.376;6.126;2023-12-04T09:09:20;4.00;99.90
15625;DHT22;7912;51.376;6.126;2023-12-04T09:11:51;4.00;99.90
15625;DHT22;7912;51.376;6.126;2023-12-04T09:14:18;4.00;99.90
15625;DHT22;7912;51.376;6.126;2023-12-04T09:16:45;4.00;99.90
15625;DHT22;7912;51.376;6.126;2023-12-04T09:19:12;4.00;99.90
15625;DHT22;7912;51.376;6.126;2023-12-04T09:21:59;4.00;99.90
15625;DHT22;7912;51.376;6.126;2023-12-04T09:24:38;4.00;99.90
15625;DHT22;7912;51.376;6.126;2023-12-04T09:27:05;4.00;99.90
15625;DHT22;7912;51.376;6.126;2023-12-04T09:29:34;4.00;99.90
15625;DHT22;7912;51.376;6.126;2023-12-04T09:32:01;4.00;99.90
15625;DHT22;7912;51.376;6.126;2023-12-04T09:34:29;4.10;99.90
15625;DHT22;7912;51.376;6.126;2023-12-04T09:40:03;4.10;99.90
15625;DHT22;7912;51.376;6.126;2023-12-04T09:42:32;4.10;99.90
15625;DHT22;7912;51.376;6.126;2023-12-04T09:45:01;4.10;99.90
15625;DHT22;7912;51.376;6.126;2023-12-04T09:47:30;4.20;99.90
15625;DHT22;7912;51.376;6.126;2023-12-04T09:50:01;4.20;99.90
15625;DHT22;7912;51.376;6.126;2023-12-04T09:52:34;4.20;99.90
15625;DHT22;7912;51.376;6.126;2023-12-04T09:55:03;4.20;99.90
15625;DHT22;7912;51.376;6.126;2023-12-04T09:57:34;4.20;99.90
15625;DHT22;7912;51.376;6.126;2023-12-04T10:00:05;4.30;99.90
15625;DHT22;7912;51.376;6.126;2023-12-04T10:02:34;4.30;99.90
15625;DHT22;7912;51.376;6.126;2023-12-04T10:05:24;4.30;99.90
15625;DHT22;7912;51.376;6.126;2023-12-04T10:07:51;4.30;99.90
15625;DHT22;7912;51.376;6.126;2023-12-04T10:10:19;4.30;99.90
15625;DHT22;7912;51.376;6.126;2023-12-04T10:12:46;4.30;99.90
15625;DHT22;7912;51.376;6.126;2023-12-04T10:15:13;4.30;99.90
15625;DHT22;7912;51.376;6.126;2023-12-04T10:17:47;4.30;99.90
15625;DHT22;7912;51.376;6.126;2023-12-04T10:20:15;4.30;99.90
15625;DHT22;7912;51.376;6.126;2023-12-04T10:25:22;4.40;99.90
15625;DHT22;7912;51.376;6.126;2023-12-04T10:27:52;4.40;99.90
15625;DHT22;7912;51.376;6.126;2023-12-04T10:30:26;4.40;99.90
15625;DHT22;7912;51.376;6.126;2023-12-04T10:33:01;4.50;99.90
15625;DHT22;7912;51.376;6.126;2023-12-04T10:35:33;4.60;99.90
15625;DHT22;7912;51.376;6.126;2023-12-04T10:38:05;4.60;99.90
15625;DHT22;7912;51.376;6.126;2023-12-04T10:40:35;4.60;99.90
15625;DHT22;7912;51.376;6.126;2023-12-04T10:45:40;4.70;99.90
15625;DHT22;7912;51.376;6.126;2023-12-04T10:48:09;4.70;99.90
15625;DHT22;7912;51.376;6.126;2023-12-04T10:50:39;4.70;99.90
15625;DHT22;7912;51.376;6.126;2023-12-04T10:53:09;4.70;99.90
15625;DHT22;7912;51.376;6.126;2023-12-04T10:55:41;4.80;99.90
15625;DHT22;7912;51.376;6.126;2023-12-04T10:58:12;4.80;99.90
15625;DHT22;7912;51.376;6.126;2023-12-04T11:00:45;4.80;99.90
15625;DHT22;7912;51.376;6.126;2023-12-04T11:03:28;4.90;99.90
15625;DHT22;7912;51.376;6.126;2023-12-04T11:06:06;4.90;99.90
15625;DHT22;7912;51.376;6.126;2023-12-04T11:08:40;5.00;99.90
15625;DHT22;7912;51.376;6.126;2023-12-04T11:11:12;5.00;99.90
15625;DHT22;7912;51.376;6.126;2023-12-04T11:13:49;5.10;99.90
15625;DHT22;7912;51.376;6.126;2023-12-04T11:19:39;5.10;99.90
15625;DHT22;7912;51.376;6.126;2023-12-04T11:22:25;5.20;99.90
15625;DHT22;7912;51.376;6.126;2023-12-04T11:24:57;5.20;99.90
15625;DHT22;7912;51.376;6.126;2023-12-04T11:27:26;5.20;99.90
15625;DHT22;7912;51.376;6.126;2023-12-04T11:29:53;5.30;99.90
15625;DHT22;7912;51.376;6.126;2023-12-04T11:32:24;5.30;99.90
15625;DHT22;7912;51.376;6.126;2023-12-04T11:34:56;5.30;99.90
15625;DHT22;7912;51.376;6.126;2023-12-04T11:37:26;5.20;99.90
15625;DHT22;7912;51.376;6.126;2023-12-04T11:39:54;5.30;99.90
15625;DHT22;7912;51.376;6.126;2023-12-04T11:42:24;5.20;99.90
15625;DHT22;7912;51.376;6.126;2023-12-04T11:44:57;5.20;99.90
15625;DHT22;7912;51.376;6.126;2023-12-04T11:47:28;5.20;99.90
15625;DHT22;7912;51.376;6.126;2023-12-04T11:49:57;5.20;99.90
15625;DHT22;7912;51.376;6.126;2023-12-04T11:52:34;5.20;99.90
15625;DHT22;7912;51.376;6.126;2023-12-04T11:55:04;5.20;99.90
15625;DHT22;7912;51.376;6.126;2023-12-04T11:57:36;5.20;99.90
15625;DHT22;7912;51.376;6.126;2023-12-04T12:05:40;5.20;99.90
15625;DHT22;7912;51.376;6.126;2023-12-04T12:08:09;5.20;99.90
15625;DHT22;7912;51.376;6.126;2023-12-04T12:10:37;5.20;99.90
15625;DHT22;7912;51.376;6.126;2023-12-04T12:13:05;5.20;99.90
15625;DHT22;7912;51.376;6.126;2023-12-04T12:15:33;5.20;99.90
15625;DHT22;7912;51.376;6.126;2023-12-04T12:18:02;5.20;99.90
15625;DHT22;7912;51.376;6.126;2023-12-04T12:20:36;5.30;99.90
15625;DHT22;7912;51.376;6.126;2023-12-04T12:23:04;5.30;99.90
15625;DHT22;7912;51.376;6.126;2023-12-04T12:25:35;5.30;99.90
15625;DHT22;7912;51.376;6.126;2023-12-04T12:28:03;5.40;99.90
15625;DHT22;7912;51.376;6.126;2023-12-04T12:30:32;5.40;99.90
15625;DHT22;7912;51.376;6.126;2023-12-04T12:33:13;5.50;99.90
15625;DHT22;7912;51.376;6.126;2023-12-04T12:35:43;5.50;99.90
15625;DHT22;7912;51.376;6.126;2023-12-04T12:38:25;5.50;99.90
15625;DHT22;7912;51.376;6.126;2023-12-04T12:40:56;5.60;99.90
15625;DHT22;7912;51.376;6.126;2023-12-04T12:43:24;5.60;99.90
15625;DHT22;7912;51.376;6.126;2023-12-04T12:45:54;5.70;99.90
15625;DHT22;7912;51.376;6.126;2023-12-04T12:48:42;5.70;99.90
15625;DHT22;7912;51.376;6.126;2023-12-04T12:51:10;5.70;99.90
15625;DHT22;7912;51.376;6.126;2023-12-04T12:53:38;5.70;99.90
15625;DHT22;7912;51.376;6.126;2023-12-04T12:56:06;5.70;99.90
15625;DHT22;7912;51.376;6.126;2023-12-04T12:58:34;5.80;99.90
15625;DHT22;7912;51.376;6.126;2023-12-04T13:01:02;5.80;99.90
15625;DHT22;7912;51.376;6.126;2023-12-04T13:03:30;5.70;99.90
15625;DHT22;7912;51.376;6.126;2023-12-04T13:06:00;5.70;99.90
15625;DHT22;7912;51.376;6.126;2023-12-04T13:08:28;5.70;99.90
15625;DHT22;7912;51.376;6.126;2023-12-04T13:10:58;5.70;99.90
15625;DHT22;7912;51.376;6.126;2023-12-04T13:13:26;5.60;99.90
15625;DHT22;7912;51.376;6.126;2023-12-04T13:15:54;5.60;99.90
15625;DHT22;7912;51.376;6.126;2023-12-04T13:18:21;5.60;99.90
15625;DHT22;7912;51.376;6.126;2023-12-04T13:20:49;5.50;99.90
15625;DHT22;7912;51.376;6.126;2023-12-04T13:23:16;5.60;99.90
15625;DHT22;7912;51.376;6.126;2023-12-04T13:25:43;5.50;99.90
15625;DHT22;7912;51.376;6.126;2023-12-04T13:28:13;5.50;99.90
15625;DHT22;7912;51.376;6.126;2023-12-04T13:30:53;5.50;99.90
15625;DHT22;7912;51.376;6.126;2023-12-04T13:33:22;5.50;99.90
15625;DHT22;7912;51.376;6.126;2023-12-04T13:35:49;5.50;99.90
15625;DHT22;7912;51.376;6.126;2023-12-04T13:38:17;5.50;99.90
15625;DHT22;7912;51.376;6.126;2023-12-04T13:40:52;5.40;99.90
15625;DHT22;7912;51.376;6.126;2023-12-04T13:43:27;5.40;99.90
15625;DHT22;7912;51.376;6.126;2023-12-04T13:46:13;5.40;99.90
15625;DHT22;7912;51.376;6.126;2023-12-04T13:48:41;5.40;99.90
15625;DHT22;7912;51.376;6.126;2023-12-04T13:51:09;5.40;99.90
15625;DHT22;7912;51.376;6.126;2023-12-04T13:53:38;5.40;99.90
15625;DHT22;7912;51.376;6.126;2023-12-04T13:56:14;5.50;99.90
15625;DHT22;7912;51.376;6.126;2023-12-04T13:58:48;5.40;99.90
15625;DHT22;7912;51.376;6.126;2023-12-04T14:01:26;5.40;99.90
15625;DHT22;7912;51.376;6.126;2023-12-04T14:03:57;5.40;99.90
15625;DHT22;7912;51.376;6.126;2023-12-04T14:06:31;5.40;99.90
15625;DHT22;7912;51.376;6.126;2023-12-04T14:09:00;5.40;99.90
15625;DHT22;7912;51.376;6.126;2023-12-04T14:11:28;5.40;99.90
15625;DHT22;7912;51.376;6.126;2023-12-04T14:13:58;5.40;99.90
15625;DHT22;7912;51.376;6.126;2023-12-04T14:16:25;5.30;99.90
15625;DHT22;7912;51.376;6.126;2023-12-04T14:18:52;5.30;99.90
15625;DHT22;7912;51.376;6.126;2023-12-04T14:21:19;5.30;99.90
15625;DHT22;7912;51.376;6.126;2023-12-04T14:23:47;5.30;99.90
15625;DHT22;7912;51.376;6.126;2023-12-04T14:26:14;5.30;99.90
15625;DHT22;7912;51.376;6.126;2023-12-04T14:28:41;5.30;99.90
15625;DHT22;7912;51.376;6.126;2023-12-04T14:31:09;5.30;99.90
15625;DHT22;7912;51.376;6.126;2023-12-04T14:33:38;5.20;99.90
15625;DHT22;7912;51.376;6.126;2023-12-04T14:36:10;5.20;99.90
15625;DHT22;7912;51.376;6.126;2023-12-04T14:38:39;5.20;99.90
15625;DHT22;7912;51.376;6.126;2023-12-04T14:41:07;5.20;99.90
15625;DHT22;7912;51.376;6.126;2023-12-04T14:43:36;5.20;99.90
15625;DHT22;7912;51.376;6.126;2023-12-04T14:46:06;5.20;99.90
15625;DHT22;7912;51.376;6.126;2023-12-04T14:48:37;5.20;99.90
15625;DHT22;7912;51.376;6.126;2023-12-04T14:51:07;5.20;99.90
15625;DHT22;7912;51.376;6.126;2023-12-04T14:53:40;5.20;99.90
15625;DHT22;7912;51.376;6.126;2023-12-04T14:56:17;5.20;99.90
15625;DHT22;7912;51.376;6.126;2023-12-04T14:59:03;5.20;99.90
15625;DHT22;7912;51.376;6.126;2023-12-04T15:01:59;5.20;99.90
15625;DHT22;7912;51.376;6.126;2023-12-04T15:04:45;5.20;99.90
15625;DHT22;7912;51.376;6.126;2023-12-04T15:07:34;5.20;99.90
15625;DHT22;7912;51.376;6.126;2023-12-04T15:10:08;5.10;99.90
15625;DHT22;7912;51.376;6.126;2023-12-04T15:12:53;5.10;99.90
15625;DHT22;7912;51.376;6.126;2023-12-04T15:15:35;5.10;99.90
15625;DHT22;7912;51.376;6.126;2023-12-04T15:18:08;5.10;99.90
15625;DHT22;7912;51.376;6.126;2023-12-04T15:20:54;5.00;99.90
15625;DHT22;7912;51.376;6.126;2023-12-04T15:23:23;5.00;99.90
15625;DHT22;7912;51.376;6.126;2023-12-04T15:25:54;5.00;99.90
15625;DHT22;7912;51.376;6.126;2023-12-04T15:28:22;4.90;99.90
15625;DHT22;7912;51.376;6.126;2023-12-04T15:30:50;4.90;99.90
15625;DHT22;7912;51.376;6.126;2023-12-04T15:33:17;4.90;99.90
15625;DHT22;7912;51.376;6.126;2023-12-04T15:35:47;4.90;99.90
15625;DHT22;7912;51.376;6.126;2023-12-04T15:38:14;4.80;99.90
15625;DHT22;7912;51.376;6.126;2023-12-04T15:40:43;4.80;99.90
15625;DHT22;7912;51.376;6.126;2023-12-04T15:43:10;4.80;99.90
15625;DHT22;7912;51.376;6.126;2023-12-04T15:45:38;4.80;99.90
15625;DHT22;7912;51.376;6.126;2023-12-04T15:48:06;4.80;99.90
15625;DHT22;7912;51.376;6.126;2023-12-04T15:50:34;4.80;99.90
15625;DHT22;7912;51.376;6.126;2023-12-04T15:53:02;4.80;99.90
15625;DHT22;7912;51.376;6.126;2023-12-04T15:55:29;4.70;99.90
15625;DHT22;7912;51.376;6.126;2023-12-04T15:57:57;4.70;99.90
15625;DHT22;7912;51.376;6.126;2023-12-04T16:00:29;4.70;99.90
15625;DHT22;7912;51.376;6.126;2023-12-04T16:02:56;4.70;99.90
15625;DHT22;7912;51.376;6.126;2023-12-04T16:05:24;4.70;99.90
15625;DHT22;7912;51.376;6.126;2023-12-04T16:07:52;4.70;99.90
15625;DHT22;7912;51.376;6.126;2023-12-04T16:10:19;4.60;99.90
15625;DHT22;7912;51.376;6.126;2023-12-04T16:12:46;4.60;99.90
15625;DHT22;7912;51.376;6.126;2023-12-04T16:15:14;4.60;99.90
15625;DHT22;7912;51.376;6.126;2023-12-04T16:17:43;4.60;99.90
15625;DHT22;7912;51.376;6.126;2023-12-04T16:20:11;4.60;99.90
15625;DHT22;7912;51.376;6.126;2023-12-04T16:22:39;4.60;99.90
15625;DHT22;7912;51.376;6.126;2023-12-04T16:25:09;4.50;99.90
15625;DHT22;7912;51.376;6.126;2023-12-04T16:27:38;4.50;99.90
15625;DHT22;7912;51.376;6.126;2023-12-04T16:30:07;4.50;99.90
15625;DHT22;7912;51.376;6.126;2023-12-04T16:32:34;4.50;99.90
15625;DHT22;7912;51.376;6.126;2023-12-04T16:35:02;4.50;99.90
15625;DHT22;7912;51.376;6.126;2023-12-04T16:37:29;4.50;99.90
15625;DHT22;7912;51.376;6.126;2023-12-04T16:39:56;4.40;99.90
15625;DHT22;7912;51.376;6.126;2023-12-04T16:42:24;4.40;99.90
15625;DHT22;7912;51.376;6.126;2023-12-04T16:44:52;4.40;99.90
15625;DHT22;7912;51.376;6.126;2023-12-04T16:47:19;4.40;99.90